This is the latest recevied weather packets stored in our database for station/object OK2ILA-14. If no packets are shown the sender has not sent any weather packets the latest 1 day(s).
| Time | Temp. | Humidity | Pressure | Rain* | Wind** | Luminosity | Snow |
|---|---|---|---|---|---|---|---|
| 1777792461 | 20.56° C | 40% | 1018.2 hPa | - | - | - | - |
| 1777791260 | 19.44° C | 41% | 1018.3 hPa | - | - | - | - |
| 1777790660 | 19.44° C | 41% | 1018.2 hPa | - | - | - | - |
| 1777790060 | 19.44° C | 43% | 1018.3 hPa | - | - | - | - |
| 1777789460 | 19.44° C | 43% | 1018.2 hPa | - | - | - | - |
| 1777788860 | 19.44° C | 44% | 1018.2 hPa | - | - | - | - |
| 1777788260 | 18.33° C | 47% | 1018.1 hPa | - | - | - | - |
| 1777787660 | 17.78° C | 49% | 1018 hPa | - | - | - | - |
| 1777787059 | 16.67° C | 51% | 1018.1 hPa | - | - | - | - |
| 1777786459 | 15.56° C | 53% | 1018.1 hPa | - | - | - | - |
| 1777785859 | 15° C | 54% | 1018.1 hPa | - | - | - | - |
| 1777785259 | 14.44° C | 54% | 1018 hPa | - | - | - | - |
| 1777784659 | 13.89° C | 56% | 1018 hPa | - | - | - | - |
| 1777784059 | 12.78° C | 59% | 1018.1 hPa | - | - | - | - |
| 1777783459 | 12.22° C | 60% | 1018.2 hPa | - | - | - | - |
| 1777782858 | 11.11° C | 62% | 1018.2 hPa | - | - | - | - |
| 1777782258 | 10.56° C | 65% | 1018.2 hPa | - | - | - | - |
| 1777781658 | 9.44° C | 68% | 1018.2 hPa | - | - | - | - |
| 1777781058 | 7.78° C | 73% | 1018.2 hPa | - | - | - | - |
| 1777780458 | 6.67° C | 76% | 1018.2 hPa | - | - | - | - |
| 1777779858 | 5.56° C | 79% | 1018.3 hPa | - | - | - | - |
| 1777779258 | 5° C | 79% | 1018.2 hPa | - | - | - | - |
| 1777778665 | 5° C | 79% | 1018.3 hPa | - | - | - | - |
| 1777778057 | 5° C | 78% | 1018.3 hPa | - | - | - | - |
| 1777777457 | 5° C | 79% | 1018.2 hPa | - | - | - | - |
* Rain since midnight (hover to see other rain measurements)
** Current wind speed in m/s (hover to see current wind gust speed)